Time;durP1;ratioP1;P1;durP2;ratioP2;P2;SDS_P1;SDS_P2;PMS_P1;PMS_P2;Temp;Humidity;BMP_temperature;BMP_pressure;BME280_temperature;BME280_humidity;BME280_pressure;Samples;Min_cycle;Max_cycle;Signal;HPM_P1;HPM_P2
2022/10/31 00:03:29;;;;;;;4.35;1.95;;;;;;;;;;8334051;28;20037;-62
2022/10/31 00:07:29;;;;;;;7.18;2.60;;;;;;;;;;8336615;28;20135;-62
2022/10/31 00:11:30;;;;;;;5.25;2.28;;;;;;;;;;8334833;28;20044;-62
2022/10/31 00:15:32;;;;;;;8.18;2.30;;;;;;;;;;8335881;28;20185;-62
2022/10/31 00:19:32;;;;;;;7.88;2.45;;;;;;;;;;8335962;28;20040;-63
2022/10/31 00:23:32;;;;;;;7.67;2.10;;;;;;;;;;8336081;28;20053;-62
2022/10/31 00:27:32;;;;;;;9.25;2.80;;;;;;;;;;8334676;28;20276;-63
2022/10/31 00:31:32;;;;;;;8.20;2.42;;;;;;;;;;8336195;28;20087;-62
2022/10/31 00:35:33;;;;;;;9.00;2.00;;;;;;;;;;8334840;28;20124;-62
2022/10/31 00:39:33;;;;;;;7.72;2.22;;;;;;;;;;8335337;28;20055;-62
2022/10/31 00:43:33;;;;;;;4.30;2.10;;;;;;;;;;8333452;28;20694;-63
2022/10/31 00:47:33;;;;;;;5.33;2.47;;;;;;;;;;8335884;28;20051;-63
2022/10/31 00:51:33;;;;;;;4.53;2.00;;;;;;;;;;8335486;28;20017;-65
2022/10/31 00:55:34;;;;;;;4.45;2.00;;;;;;;;;;8333735;28;20060;-63
2022/10/31 00:59:34;;;;;;;6.43;1.98;;;;;;;;;;8333903;28;20142;-63
2022/10/31 01:03:34;;;;;;;4.88;2.60;;;;;;;;;;8333405;28;20041;-62
2022/10/31 01:07:38;;;;;;;5.93;1.98;;;;;;;;;;8334822;28;20421;-63
2022/10/31 01:11:38;;;;;;;7.75;2.10;;;;;;;;;;8332742;28;20510;-62
2022/10/31 01:15:40;;;;;;;6.13;2.45;;;;;;;;;;8330912;28;20040;-62
2022/10/31 01:19:40;;;;;;;9.27;2.00;;;;;;;;;;8332879;28;20017;-62
2022/10/31 01:23:40;;;;;;;6.30;2.38;;;;;;;;;;8333700;28;20098;-62
2022/10/31 01:27:40;;;;;;;8.02;2.30;;;;;;;;;;8332456;28;20021;-62
2022/10/31 01:31:41;;;;;;;4.97;2.23;;;;;;;;;;8333182;28;20878;-62
2022/10/31 01:35:41;;;;;;;5.43;2.35;;;;;;;;;;8334765;28;21133;-62
2022/10/31 01:39:41;;;;;;;9.30;3.75;;;;;;;;;;8336225;28;20070;-62
2022/10/31 01:43:53;;;;;;;10.57;3.90;;;;;;;;;;8333192;28;20041;-62
2022/10/31 01:47:53;;;;;;;9.20;3.45;;;;;;;;;;8334358;28;20037;-63
2022/10/31 01:51:55;;;;;;;11.30;3.63;;;;;;;;;;8332692;28;20031;-63
2022/10/31 01:55:56;;;;;;;5.93;3.03;;;;;;;;;;8332721;28;20572;-63
2022/10/31 01:59:59;;;;;;;8.75;3.08;;;;;;;;;;8332662;28;20024;-62
2022/10/31 02:03:59;;;;;;;8.48;2.83;;;;;;;;;;8333814;28;20120;-63
2022/10/31 02:08:03;;;;;;;8.05;2.83;;;;;;;;;;8335195;28;20067;-62
2022/10/31 02:12:04;;;;;;;5.40;2.60;;;;;;;;;;8336758;28;20035;-62
2022/10/31 02:16:04;;;;;;;7.75;2.70;;;;;;;;;;8338724;28;20655;-62
2022/10/31 02:20:11;;;;;;;9.07;2.47;;;;;;;;;;8338953;28;20037;-63
2022/10/31 02:24:20;;;;;;;5.78;2.30;;;;;;;;;;8339061;28;20539;-62
2022/10/31 02:28:31;;;;;;;5.13;2.20;;;;;;;;;;8339095;28;20025;-62
2022/10/31 02:32:41;;;;;;;7.50;2.50;;;;;;;;;;8338702;28;20480;-63
2022/10/31 02:36:47;;;;;;;9.60;2.70;;;;;;;;;;8321836;28;20100;-62
2022/10/31 02:40:47;;;;;;;8.05;2.88;;;;;;;;;;8323150;28;20025;-63
2022/10/31 02:44:55;;;;;;;7.63;2.47;;;;;;;;;;8324782;28;20025;-62
2022/10/31 02:48:58;;;;;;;6.72;2.28;;;;;;;;;;8322938;28;20037;-62
2022/10/31 02:52:58;;;;;;;5.72;2.40;;;;;;;;;;8323125;28;20147;-62
2022/10/31 02:57:02;;;;;;;8.20;2.50;;;;;;;;;;8322187;28;20083;-62
2022/10/31 03:01:09;;;;;;;11.35;2.60;;;;;;;;;;8322767;28;20491;-63
2022/10/31 03:05:12;;;;;;;7.80;3.13;;;;;;;;;;8321860;28;20021;-63
2022/10/31 03:09:31;;;;;;;7.43;2.37;;;;;;;;;;8323528;28;20140;-62
2022/10/31 03:13:39;;;;;;;6.88;2.53;;;;;;;;;;8321726;28;20276;-62
2022/10/31 03:17:47;;;;;;;7.18;2.25;;;;;;;;;;8322145;28;20040;-62
2022/10/31 03:21:50;;;;;;;4.93;2.45;;;;;;;;;;8319783;28;20718;-63
2022/10/31 03:25:52;;;;;;;7.73;2.37;;;;;;;;;;8323030;28;20021;-62
2022/10/31 03:29:54;;;;;;;10.52;2.75;;;;;;;;;;8322326;28;20517;-62
2022/10/31 03:33:56;;;;;;;9.20;2.67;;;;;;;;;;8314593;28;21197;-62
2022/10/31 03:37:58;;;;;;;4.78;2.30;;;;;;;;;;8303818;28;20032;-62
2022/10/31 03:42:07;;;;;;;7.60;2.88;;;;;;;;;;8304189;28;20402;-63
2022/10/31 03:46:07;;;;;;;5.47;2.63;;;;;;;;;;8302088;28;20045;-63
2022/10/31 03:50:08;;;;;;;7.50;2.65;;;;;;;;;;8304787;28;20204;-62
2022/10/31 03:54:13;;;;;;;7.68;2.78;;;;;;;;;;8304646;28;20544;-63
2022/10/31 03:58:18;;;;;;;7.95;2.92;;;;;;;;;;8302596;28;20021;-64
2022/10/31 04:02:21;;;;;;;7.65;2.80;;;;;;;;;;8303547;28;20034;-62
2022/10/31 04:06:22;;;;;;;7.32;2.88;;;;;;;;;;8305302;28;20025;-62
2022/10/31 04:10:23;;;;;;;7.95;2.72;;;;;;;;;;8303089;28;20033;-62
2022/10/31 04:14:24;;;;;;;6.20;2.67;;;;;;;;;;8301955;28;20639;-62
2022/10/31 04:18:25;;;;;;;7.63;2.67;;;;;;;;;;8302384;28;20069;-62
2022/10/31 04:22:25;;;;;;;7.30;2.60;;;;;;;;;;8300663;28;20079;-62
2022/10/31 04:26:26;;;;;;;9.90;3.17;;;;;;;;;;8301771;28;20087;-62
2022/10/31 04:30:26;;;;;;;16.92;2.92;;;;;;;;;;8301132;28;20041;-63
2022/10/31 04:34:26;;;;;;;8.50;2.67;;;;;;;;;;8316646;28;20029;-62
2022/10/31 04:38:26;;;;;;;8.00;2.80;;;;;;;;;;8333293;28;20027;-64
2022/10/31 04:42:28;;;;;;;10.90;2.53;;;;;;;;;;8334416;28;20028;-62
2022/10/31 04:46:30;;;;;;;10.40;3.10;;;;;;;;;;8333632;28;20102;-63
2022/10/31 04:50:30;;;;;;;7.30;2.90;;;;;;;;;;8333440;28;20021;-62
2022/10/31 04:54:30;;;;;;;8.95;2.97;;;;;;;;;;8334144;28;20131;-63
2022/10/31 04:58:30;;;;;;;10.43;3.00;;;;;;;;;;8336000;28;20074;-64
2022/10/31 05:02:30;;;;;;;10.65;2.90;;;;;;;;;;8333384;28;20043;-62
2022/10/31 05:06:31;;;;;;;6.00;2.88;;;;;;;;;;8318007;28;20029;-67
2022/10/31 05:10:31;;;;;;;6.25;2.47;;;;;;;;;;8332302;28;20696;-62
2022/10/31 05:14:31;;;;;;;6.00;3.00;;;;;;;;;;8333128;28;20021;-63
2022/10/31 05:18:31;;;;;;;6.13;2.73;;;;;;;;;;8334424;28;20362;-62
2022/10/31 05:22:32;;;;;;;9.10;3.20;;;;;;;;;;8333942;28;20082;-62
2022/10/31 05:26:32;;;;;;;5.82;2.63;;;;;;;;;;8335253;28;20029;-63
2022/10/31 05:30:33;;;;;;;7.80;2.85;;;;;;;;;;8332309;28;20029;-63
2022/10/31 05:34:33;;;;;;;7.15;2.80;;;;;;;;;;8334163;28;20090;-62
2022/10/31 05:38:33;;;;;;;6.47;2.80;;;;;;;;;;8336774;28;20029;-63
2022/10/31 05:42:33;;;;;;;6.90;3.08;;;;;;;;;;8332825;28;20024;-62
2022/10/31 05:46:33;;;;;;;9.70;2.97;;;;;;;;;;8333567;28;20047;-62
2022/10/31 05:50:34;;;;;;;6.47;2.72;;;;;;;;;;8338601;28;20017;-62
2022/10/31 05:54:34;;;;;;;7.57;2.35;;;;;;;;;;8342324;28;20037;-62
2022/10/31 05:58:34;;;;;;;7.68;2.88;;;;;;;;;;8343259;28;20044;-62
2022/10/31 06:02:35;;;;;;;6.45;2.95;;;;;;;;;;8337619;28;20029;-62
2022/10/31 06:06:35;;;;;;;9.40;3.20;;;;;;;;;;8339474;28;20025;-63
2022/10/31 06:10:36;;;;;;;5.32;3.10;;;;;;;;;;8337682;28;20071;-63
2022/10/31 06:14:36;;;;;;;4.30;2.30;;;;;;;;;;8338520;28;20017;-63
2022/10/31 06:18:36;;;;;;;4.50;2.65;;;;;;;;;;8337527;28;20268;-62
2022/10/31 06:22:36;;;;;;;8.95;2.90;;;;;;;;;;8337626;28;20384;-62
2022/10/31 06:26:37;;;;;;;7.85;2.97;;;;;;;;;;8337460;28;20032;-62
2022/10/31 06:30:37;;;;;;;8.23;2.60;;;;;;;;;;8338557;28;20029;-62
2022/10/31 06:34:37;;;;;;;8.02;2.95;;;;;;;;;;8338388;28;20502;-62
2022/10/31 06:38:37;;;;;;;9.95;3.38;;;;;;;;;;8335605;28;20408;-63
2022/10/31 06:42:38;;;;;;;6.70;2.58;;;;;;;;;;8336849;28;20074;-62
2022/10/31 06:46:38;;;;;;;9.53;2.70;;;;;;;;;;8336763;28;20044;-63
2022/10/31 06:50:38;;;;;;;7.85;2.65;;;;;;;;;;8335922;28;20017;-63
2022/10/31 06:54:38;;;;;;;10.95;3.20;;;;;;;;;;8335312;28;20245;-62
2022/10/31 06:58:38;;;;;;;8.18;3.28;;;;;;;;;;8329580;28;20035;-62
2022/10/31 07:02:39;;;;;;;13.23;3.38;;;;;;;;;;8331302;28;20064;-62
2022/10/31 07:06:39;;;;;;;6.40;2.80;;;;;;;;;;8334811;28;20031;-68
2022/10/31 07:10:40;;;;;;;6.90;3.10;;;;;;;;;;8335288;28;20170;-62
2022/10/31 07:14:40;;;;;;;8.45;2.97;;;;;;;;;;8335615;28;20489;-62
2022/10/31 07:18:40;;;;;;;6.72;3.33;;;;;;;;;;8332707;28;20033;-62
2022/10/31 07:22:41;;;;;;;7.93;2.80;;;;;;;;;;8335812;28;20034;-62
2022/10/31 07:26:42;;;;;;;8.60;2.92;;;;;;;;;;8334290;28;20079;-62
2022/10/31 07:30:42;;;;;;;5.05;2.90;;;;;;;;;;8336176;28;20037;-62
2022/10/31 07:34:42;;;;;;;7.72;3.28;;;;;;;;;;8335583;28;20063;-62
2022/10/31 07:38:42;;;;;;;9.13;2.63;;;;;;;;;;8335865;28;20021;-62
2022/10/31 07:42:43;;;;;;;8.43;3.28;;;;;;;;;;8333997;28;20024;-62
2022/10/31 07:46:43;;;;;;;12.65;3.28;;;;;;;;;;8334666;28;20056;-62
2022/10/31 07:50:44;;;;;;;7.20;2.90;;;;;;;;;;8333761;28;20025;-62
2022/10/31 07:54:44;;;;;;;6.13;3.42;;;;;;;;;;8336498;28;20036;-63
2022/10/31 07:58:44;;;;;;;6.78;2.92;;;;;;;;;;8334386;28;20016;-62
2022/10/31 08:02:44;;;;;;;8.70;3.10;;;;;;;;;;8333526;28;20036;-63
2022/10/31 08:06:45;;;;;;;7.22;2.95;;;;;;;;;;8330322;28;20035;-62
2022/10/31 08:10:45;;;;;;;7.50;2.97;;;;;;;;;;8332049;28;20032;-61
2022/10/31 08:14:45;;;;;;;6.70;3.38;;;;;;;;;;8333677;28;20028;-63
2022/10/31 08:18:45;;;;;;;6.63;3.30;;;;;;;;;;8336936;28;20543;-62
2022/10/31 08:23:15;;;;;;;10.23;3.50;;;;;;;;;;8337080;28;20382;-63
2022/10/31 08:27:16;;;;;;;8.52;3.65;;;;;;;;;;8318150;28;20044;-63
2022/10/31 08:31:16;;;;;;;6.55;3.28;;;;;;;;;;8335647;28;20051;-63
2022/10/31 08:35:16;;;;;;;10.27;3.28;;;;;;;;;;8338148;28;20025;-63
2022/10/31 08:39:16;;;;;;;6.15;3.03;;;;;;;;;;8338717;28;20021;-63
2022/10/31 08:43:17;;;;;;;5.93;2.92;;;;;;;;;;8336987;28;20116;-63
2022/10/31 08:47:17;;;;;;;8.82;3.13;;;;;;;;;;8336683;28;20125;-63
2022/10/31 08:51:17;;;;;;;4.75;2.90;;;;;;;;;;8335123;28;20055;-63
2022/10/31 08:55:17;;;;;;;7.63;2.97;;;;;;;;;;8336633;28;20035;-63
2022/10/31 08:59:18;;;;;;;5.75;3.50;;;;;;;;;;8338084;28;20020;-63
2022/10/31 09:03:21;;;;;;;8.68;3.17;;;;;;;;;;8331881;28;20037;-64
2022/10/31 09:07:21;;;;;;;12.40;3.25;;;;;;;;;;8334756;28;20032;-63
2022/10/31 09:11:21;;;;;;;10.50;3.30;;;;;;;;;;8336551;28;20035;-63
2022/10/31 09:15:22;;;;;;;6.55;3.03;;;;;;;;;;8335699;28;22285;-63
2022/10/31 09:19:22;;;;;;;7.33;3.47;;;;;;;;;;8336147;28;20024;-63
2022/10/31 09:23:22;;;;;;;11.45;3.90;;;;;;;;;;8335562;28;20961;-63
2022/10/31 09:27:22;;;;;;;10.32;3.50;;;;;;;;;;8336050;28;20278;-63
2022/10/31 09:31:23;;;;;;;11.43;4.30;;;;;;;;;;8335033;28;20060;-63
2022/10/31 09:35:23;;;;;;;9.47;4.27;;;;;;;;;;8335677;28;20116;-66
2022/10/31 09:39:23;;;;;;;9.63;4.80;;;;;;;;;;8335642;28;20315;-63
2022/10/31 09:43:36;;;;;;;11.20;4.50;;;;;;;;;;8332858;28;20127;-65
2022/10/31 09:47:42;;;;;;;7.75;4.53;;;;;;;;;;8333482;28;20041;-63
2022/10/31 09:51:45;;;;;;;12.15;4.25;;;;;;;;;;8336035;28;20024;-63
2022/10/31 09:55:47;;;;;;;10.48;5.50;;;;;;;;;;8333479;28;20025;-70
2022/10/31 09:59:48;;;;;;;9.63;5.28;;;;;;;;;;8337336;28;20429;-63
2022/10/31 10:03:50;;;;;;;9.00;5.53;;;;;;;;;;8333053;28;20024;-63
2022/10/31 10:08:09;;;;;;;12.88;6.00;;;;;;;;;;8336638;28;20087;-63
2022/10/31 10:12:09;;;;;;;14.13;5.80;;;;;;;;;;8335369;28;20029;-63
2022/10/31 10:16:33;;;;;;;11.85;5.75;;;;;;;;;;8335501;28;20150;-63
2022/10/31 10:20:36;;;;;;;9.07;5.93;;;;;;;;;;8336931;28;20064;-63
2022/10/31 10:24:56;;;;;;;11.50;6.47;;;;;;;;;;8334478;28;20099;-63
2022/10/31 10:29:01;;;;;;;11.98;6.63;;;;;;;;;;8334307;28;20040;-63
2022/10/31 10:33:08;;;;;;;16.90;8.10;;;;;;;;;;8335579;28;20089;-63
2022/10/31 10:37:28;;;;;;;17.48;7.35;;;;;;;;;;8338549;28;20093;-63
2022/10/31 10:41:32;;;;;;;14.98;7.53;;;;;;;;;;8336785;28;20152;-63
2022/10/31 10:49:52;;;;;;;18.60;8.30;;;;;;;;;;8341291;28;20008;-65
2022/10/31 10:54:04;;;;;;;20.88;9.90;;;;;;;;;;8338207;28;20477;-63
2022/10/31 10:58:07;;;;;;;19.30;8.73;;;;;;;;;;8340781;28;20159;-63
2022/10/31 11:02:08;;;;;;;;;;;;;;;;;;8335830;28;20041;-63
2022/10/31 11:06:21;;;;;;;15.25;7.72;;;;;;;;;;8338294;28;19998;-63
2022/10/31 11:10:22;;;;;;;16.80;7.53;;;;;;;;;;8339252;28;20054;-63
2022/10/31 11:14:22;;;;;;;15.38;7.88;;;;;;;;;;8339341;28;20119;-63
2022/10/31 11:18:24;;;;;;;17.20;7.85;;;;;;;;;;8338800;28;20066;-64
2022/10/31 11:22:25;;;;;;;13.65;8.02;;;;;;;;;;8338375;28;20104;-64
2022/10/31 11:26:25;;;;;;;11.80;7.55;;;;;;;;;;8336496;28;20548;-63
2022/10/31 11:30:26;;;;;;;15.03;8.17;;;;;;;;;;8338843;28;20032;-63
2022/10/31 11:34:35;;;;;;;21.73;7.35;;;;;;;;;;8338903;28;20065;-63
2022/10/31 11:38:40;;;;;;;19.83;7.72;;;;;;;;;;8339154;28;20032;-63
2022/10/31 11:42:42;;;;;;;14.05;7.43;;;;;;;;;;8338565;28;20029;-63
2022/10/31 11:46:44;;;;;;;13.45;7.57;;;;;;;;;;8338572;28;20036;-63
2022/10/31 11:50:48;;;;;;;13.13;7.03;;;;;;;;;;8337762;28;20021;-63
2022/10/31 11:55:02;;;;;;;11.18;5.90;;;;;;;;;;8341877;28;20037;-63
2022/10/31 11:59:04;;;;;;;16.33;6.57;;;;;;;;;;8337051;28;21084;-63
2022/10/31 12:03:11;;;;;;;15.00;7.40;;;;;;;;;;8338306;28;20040;-63
2022/10/31 12:07:12;;;;;;;12.27;7.35;;;;;;;;;;8339178;28;20131;-63
2022/10/31 12:11:12;;;;;;;13.63;8.03;;;;;;;;;;8338027;28;20557;-63
2022/10/31 12:15:15;;;;;;;12.90;7.53;;;;;;;;;;8333279;28;20035;-63
2022/10/31 12:19:32;;;;;;;13.23;7.13;;;;;;;;;;8335559;28;20499;-63
2022/10/31 12:23:52;;;;;;;16.65;7.40;;;;;;;;;;8339200;28;20037;-64
2022/10/31 12:28:03;;;;;;;11.68;6.50;;;;;;;;;;8320096;28;20039;-63
2022/10/31 12:32:22;;;;;;;12.98;7.25;;;;;;;;;;8335141;28;20028;-63
2022/10/31 12:36:41;;;;;;;22.73;8.25;;;;;;;;;;8336132;28;22113;-63
2022/10/31 12:40:47;;;;;;;12.70;7.53;;;;;;;;;;8336514;28;20028;-67
2022/10/31 12:44:57;;;;;;;13.07;6.60;;;;;;;;;;8335669;28;20028;-64
2022/10/31 12:49:00;;;;;;;12.02;6.55;;;;;;;;;;8337473;28;20032;-64
2022/10/31 12:53:06;;;;;;;16.65;6.95;;;;;;;;;;8334418;28;20047;-63
2022/10/31 12:57:21;;;;;;;11.13;6.38;;;;;;;;;;8334205;28;20045;-63
2022/10/31 13:01:29;;;;;;;18.33;7.15;;;;;;;;;;8333485;28;20530;-64
2022/10/31 13:05:43;;;;;;;15.32;7.60;;;;;;;;;;8336306;28;20028;-63
2022/10/31 13:09:50;;;;;;;15.38;7.53;;;;;;;;;;8336273;28;20086;-63
2022/10/31 13:13:55;;;;;;;23.88;7.70;;;;;;;;;;8336270;28;20029;-63
2022/10/31 13:18:09;;;;;;;12.52;7.15;;;;;;;;;;8336849;28;20045;-63
2022/10/31 13:22:12;;;;;;;13.05;6.78;;;;;;;;;;8334800;28;20573;-63
2022/10/31 13:26:15;;;;;;;15.05;6.47;;;;;;;;;;8335973;28;20076;-64
2022/10/31 13:30:17;;;;;;;15.90;7.00;;;;;;;;;;8335611;28;20032;-63
2022/10/31 13:34:38;;;;;;;13.98;6.20;;;;;;;;;;8336689;28;20043;-63
2022/10/31 13:38:41;;;;;;;11.98;5.65;;;;;;;;;;8335379;28;20024;-63
2022/10/31 13:42:57;;;;;;;10.85;5.07;;;;;;;;;;8335091;28;20028;-62
2022/10/31 13:46:57;;;;;;;11.05;4.38;;;;;;;;;;8335414;28;20059;-63
2022/10/31 13:51:03;;;;;;;9.68;4.30;;;;;;;;;;8335705;28;20457;-62
2022/10/31 13:55:03;;;;;;;10.45;4.32;;;;;;;;;;8337137;28;20021;-62
2022/10/31 13:59:06;;;;;;;12.07;4.30;;;;;;;;;;8336374;28;20720;-63
2022/10/31 14:03:17;;;;;;;12.00;4.25;;;;;;;;;;8337902;28;20151;-63
2022/10/31 14:07:20;;;;;;;11.50;4.43;;;;;;;;;;8337200;28;20028;-63
2022/10/31 14:11:27;;;;;;;10.32;4.43;;;;;;;;;;8345113;28;20075;-63
2022/10/31 14:15:28;;;;;;;14.90;4.20;;;;;;;;;;8343731;28;20128;-63
2022/10/31 14:19:28;;;;;;;18.13;4.25;;;;;;;;;;8341135;28;20720;-63
2022/10/31 14:23:39;;;;;;;8.77;4.53;;;;;;;;;;8343678;28;20032;-63
2022/10/31 14:27:45;;;;;;;7.90;4.00;;;;;;;;;;8340879;28;20267;-63
2022/10/31 14:31:51;;;;;;;8.38;3.88;;;;;;;;;;8339687;28;20033;-63
2022/10/31 14:35:58;;;;;;;10.45;3.88;;;;;;;;;;8343197;28;21012;-63
2022/10/31 14:40:01;;;;;;;7.90;3.78;;;;;;;;;;8341650;28;20135;-63
2022/10/31 14:44:15;;;;;;;10.10;4.50;;;;;;;;;;8339983;28;20025;-63
2022/10/31 14:48:28;;;;;;;11.25;4.05;;;;;;;;;;8340177;28;20032;-63
2022/10/31 14:52:29;;;;;;;11.10;4.93;;;;;;;;;;8340699;28;20029;-63
2022/10/31 14:56:30;;;;;;;10.52;4.93;;;;;;;;;;8341914;28;20032;-64
2022/10/31 15:00:31;;;;;;;13.05;5.63;;;;;;;;;;8339676;28;20044;-63
2022/10/31 15:04:34;;;;;;;12.75;5.18;;;;;;;;;;8337663;28;20960;-63
2022/10/31 15:08:37;;;;;;;15.00;6.75;;;;;;;;;;8337101;28;20040;-63
2022/10/31 15:12:38;;;;;;;14.00;5.75;;;;;;;;;;8336025;28;20662;-63
2022/10/31 15:16:40;;;;;;;11.43;5.63;;;;;;;;;;8337054;28;20049;-63
2022/10/31 15:20:42;;;;;;;12.52;5.80;;;;;;;;;;8335691;28;20611;-63
2022/10/31 15:24:43;;;;;;;12.07;6.60;;;;;;;;;;8336812;28;20051;-65
2022/10/31 15:28:44;;;;;;;12.55;6.60;;;;;;;;;;8336712;28;20025;-63
2022/10/31 15:32:44;;;;;;;9.43;5.53;;;;;;;;;;8335912;28;20044;-63
2022/10/31 15:36:47;;;;;;;14.27;6.32;;;;;;;;;;8335670;28;20032;-63
2022/10/31 15:40:59;;;;;;;13.63;6.65;;;;;;;;;;8338357;28;20016;-63
2022/10/31 15:45:02;;;;;;;10.32;6.50;;;;;;;;;;8336343;28;20032;-63
2022/10/31 15:49:02;;;;;;;15.98;6.75;;;;;;;;;;8337665;28;20037;-63
2022/10/31 15:53:03;;;;;;;22.93;8.40;;;;;;;;;;8334460;28;20108;-63
2022/10/31 15:57:09;;;;;;;20.10;8.00;;;;;;;;;;8336127;28;20028;-64
2022/10/31 16:01:25;;;;;;;13.60;7.53;;;;;;;;;;8333389;28;20468;-63
2022/10/31 16:05:25;;;;;;;13.43;7.10;;;;;;;;;;8338399;28;20064;-63
2022/10/31 16:09:25;;;;;;;16.70;6.40;;;;;;;;;;8334726;28;20029;-64
2022/10/31 16:13:27;;;;;;;13.70;7.17;;;;;;;;;;8334874;28;20036;-63
2022/10/31 16:17:28;;;;;;;12.90;6.57;;;;;;;;;;8335357;28;20745;-63
2022/10/31 16:21:33;;;;;;;14.67;7.60;;;;;;;;;;8336965;28;20079;-63
2022/10/31 16:25:37;;;;;;;17.05;9.98;;;;;;;;;;8333430;28;20023;-64
2022/10/31 16:29:41;;;;;;;15.10;9.43;;;;;;;;;;8335161;28;20024;-63
2022/10/31 16:33:42;;;;;;;16.67;8.52;;;;;;;;;;8317709;28;21008;-63
2022/10/31 16:37:42;;;;;;;19.13;8.52;;;;;;;;;;8332704;28;20616;-63
2022/10/31 16:41:50;;;;;;;13.73;7.72;;;;;;;;;;8331284;28;20478;-63
2022/10/31 16:45:51;;;;;;;13.05;7.28;;;;;;;;;;8334152;28;20033;-63
2022/10/31 16:49:52;;;;;;;15.68;7.68;;;;;;;;;;8333857;28;20427;-63
2022/10/31 16:53:53;;;;;;;13.98;7.57;;;;;;;;;;8333452;28;20031;-63
2022/10/31 16:57:54;;;;;;;10.98;6.78;;;;;;;;;;8333617;28;20090;-63
2022/10/31 17:01:56;;;;;;;11.13;7.18;;;;;;;;;;8331739;28;20377;-63
2022/10/31 17:05:56;;;;;;;11.55;6.28;;;;;;;;;;8332096;28;20054;-63
2022/10/31 17:09:56;;;;;;;14.38;6.57;;;;;;;;;;8334153;28;20020;-63
2022/10/31 17:13:57;;;;;;;12.93;6.32;;;;;;;;;;8335178;28;20035;-64
2022/10/31 17:17:57;;;;;;;12.25;7.03;;;;;;;;;;8331230;28;20045;-63
2022/10/31 17:21:57;;;;;;;12.02;6.93;;;;;;;;;;8332942;28;20028;-63
2022/10/31 17:25:58;;;;;;;16.88;7.35;;;;;;;;;;8330932;28;20035;-63
2022/10/31 17:29:58;;;;;;;13.02;7.30;;;;;;;;;;8332217;28;20040;-63
2022/10/31 17:33:59;;;;;;;10.48;6.95;;;;;;;;;;8331383;28;20133;-63
2022/10/31 17:37:59;;;;;;;11.52;6.28;;;;;;;;;;8334088;28;20040;-63
2022/10/31 17:42:00;;;;;;;14.68;7.18;;;;;;;;;;8315731;28;20017;-64
2022/10/31 17:46:00;;;;;;;11.45;6.40;;;;;;;;;;8339194;28;20032;-63
2022/10/31 17:50:01;;;;;;;12.20;6.10;;;;;;;;;;8341039;28;20107;-63
2022/10/31 17:54:01;;;;;;;11.55;6.50;;;;;;;;;;8339975;28;20752;-64
2022/10/31 17:58:01;;;;;;;13.95;6.20;;;;;;;;;;8338163;28;20120;-63
2022/10/31 18:02:07;;;;;;;13.55;7.25;;;;;;;;;;8338663;28;20035;-63
2022/10/31 18:06:09;;;;;;;9.10;6.20;;;;;;;;;;8338268;28;20051;-63
2022/10/31 18:10:09;;;;;;;10.65;6.88;;;;;;;;;;8337554;28;20041;-63
2022/10/31 18:14:09;;;;;;;12.00;6.87;;;;;;;;;;8339430;28;20035;-63
2022/10/31 18:18:10;;;;;;;10.25;6.70;;;;;;;;;;8337788;28;20282;-63
2022/10/31 18:22:10;;;;;;;12.52;6.32;;;;;;;;;;8338774;28;20020;-63
2022/10/31 18:26:11;;;;;;;10.85;6.72;;;;;;;;;;8338694;28;20026;-63
2022/10/31 18:30:11;;;;;;;11.20;6.90;;;;;;;;;;8336554;28;20033;-63
2022/10/31 18:34:11;;;;;;;13.90;7.05;;;;;;;;;;8335018;28;20060;-63
2022/10/31 18:38:12;;;;;;;14.55;7.75;;;;;;;;;;8339399;28;20029;-63
2022/10/31 18:42:12;;;;;;;9.68;6.65;;;;;;;;;;8337586;28;20021;-63
2022/10/31 18:46:13;;;;;;;12.90;5.93;;;;;;;;;;8337124;28;20040;-64
2022/10/31 18:50:13;;;;;;;14.10;7.60;;;;;;;;;;8338066;28;20263;-65
2022/10/31 18:54:13;;;;;;;14.40;8.17;;;;;;;;;;8336879;28;20093;-63
2022/10/31 18:58:14;;;;;;;12.30;7.50;;;;;;;;;;8337257;28;20287;-63
2022/10/31 19:02:14;;;;;;;11.18;7.10;;;;;;;;;;8334602;28;20268;-64
2022/10/31 19:06:14;;;;;;;15.77;6.63;;;;;;;;;;8337079;28;20029;-63
2022/10/31 19:10:15;;;;;;;11.55;5.82;;;;;;;;;;8334426;28;20582;-63
2022/10/31 19:14:15;;;;;;;16.38;7.70;;;;;;;;;;8318858;28;20017;-63
2022/10/31 19:18:15;;;;;;;14.87;9.37;;;;;;;;;;8334082;28;20044;-63
2022/10/31 19:22:15;;;;;;;13.02;6.57;;;;;;;;;;8336570;28;20095;-63
2022/10/31 19:26:15;;;;;;;11.88;6.43;;;;;;;;;;8335993;28;20029;-63
2022/10/31 19:30:16;;;;;;;13.35;6.93;;;;;;;;;;8336592;28;20017;-63
2022/10/31 19:34:16;;;;;;;11.30;7.00;;;;;;;;;;8336305;28;20117;-63
2022/10/31 19:38:16;;;;;;;9.05;4.95;;;;;;;;;;8320064;28;20047;-64
2022/10/31 19:42:16;;;;;;;12.82;6.15;;;;;;;;;;8335760;28;20021;-64
2022/10/31 19:46:18;;;;;;;9.27;5.33;;;;;;;;;;8335464;28;20044;-64
2022/10/31 19:50:18;;;;;;;12.63;5.35;;;;;;;;;;8335679;28;20079;-63
2022/10/31 19:54:18;;;;;;;12.23;5.75;;;;;;;;;;8336561;28;20029;-64
2022/10/31 19:58:18;;;;;;;10.45;6.32;;;;;;;;;;8333133;28;20041;-63
2022/10/31 20:02:19;;;;;;;12.32;6.53;;;;;;;;;;8333888;28;20064;-63
2022/10/31 20:06:20;;;;;;;17.60;8.07;;;;;;;;;;8332094;28;20033;-63
2022/10/31 20:10:20;;;;;;;11.40;7.85;;;;;;;;;;8334793;28;20024;-63
2022/10/31 20:14:20;;;;;;;12.35;7.55;;;;;;;;;;8333832;28;20029;-63
2022/10/31 20:18:20;;;;;;;14.43;6.97;;;;;;;;;;8333295;28;21010;-63
2022/10/31 20:22:20;;;;;;;16.25;7.55;;;;;;;;;;8334175;28;20025;-63
2022/10/31 20:26:21;;;;;;;11.00;7.13;;;;;;;;;;8335946;28;20034;-63
2022/10/31 20:30:28;;;;;;;14.43;7.13;;;;;;;;;;8313238;28;20388;-61
2022/10/31 20:34:28;;;;;;;15.13;8.48;;;;;;;;;;8297539;28;20046;-61
2022/10/31 20:38:28;;;;;;;12.35;7.88;;;;;;;;;;8295942;28;20837;-61
2022/10/31 20:42:28;;;;;;;15.40;8.38;;;;;;;;;;8294617;28;20029;-62
2022/10/31 20:46:29;;;;;;;14.45;8.88;;;;;;;;;;8294444;28;20194;-61
2022/10/31 20:50:30;;;;;;;16.15;8.57;;;;;;;;;;8295321;28;20021;-61
2022/10/31 20:54:30;;;;;;;12.60;8.30;;;;;;;;;;8294975;28;20182;-61
2022/10/31 20:58:30;;;;;;;14.52;7.13;;;;;;;;;;8296108;28;20104;-61
2022/10/31 21:02:31;;;;;;;10.00;7.47;;;;;;;;;;8294030;28;20044;-61
2022/10/31 21:06:31;;;;;;;11.82;6.55;;;;;;;;;;8294373;28;20053;-62
2022/10/31 21:10:31;;;;;;;14.47;6.33;;;;;;;;;;8296541;28;20017;-62
2022/10/31 21:14:31;;;;;;;8.73;5.77;;;;;;;;;;8296547;28;20876;-61
2022/10/31 21:18:35;;;;;;;13.73;5.68;;;;;;;;;;8293791;28;20319;-62
2022/10/31 21:22:36;;;;;;;13.25;6.47;;;;;;;;;;8294200;28;20192;-70
2022/10/31 21:26:38;;;;;;;13.43;5.95;;;;;;;;;;8293986;28;20168;-62
2022/10/31 21:30:45;;;;;;;8.57;5.32;;;;;;;;;;8294959;28;20478;-61
2022/10/31 21:34:46;;;;;;;10.30;5.10;;;;;;;;;;8296601;28;20438;-61
2022/10/31 21:38:50;;;;;;;9.82;4.85;;;;;;;;;;8288436;28;20144;-63
2022/10/31 21:42:51;;;;;;;8.85;4.38;;;;;;;;;;8271747;28;20445;-62
2022/10/31 21:46:51;;;;;;;7.22;4.22;;;;;;;;;;8272071;28;20137;-61
2022/10/31 21:50:51;;;;;;;7.57;3.75;;;;;;;;;;8273698;28;20031;-61
2022/10/31 21:54:51;;;;;;;7.28;3.92;;;;;;;;;;8275865;28;20037;-61
2022/10/31 21:58:52;;;;;;;9.75;3.97;;;;;;;;;;8270906;28;20033;-61
2022/10/31 22:02:52;;;;;;;13.75;5.90;;;;;;;;;;8271475;28;20045;-61
2022/10/31 22:06:52;;;;;;;10.13;4.65;;;;;;;;;;8270961;28;20192;-61
2022/10/31 22:10:52;;;;;;;9.60;3.85;;;;;;;;;;8274306;28;20483;-60
2022/10/31 22:14:53;;;;;;;11.00;3.88;;;;;;;;;;8273848;28;21010;-61
2022/10/31 22:18:54;;;;;;;10.60;3.70;;;;;;;;;;8275726;28;20072;-61
2022/10/31 22:22:54;;;;;;;11.02;4.05;;;;;;;;;;8273631;28;20781;-61
2022/10/31 22:26:55;;;;;;;9.68;4.10;;;;;;;;;;8272467;28;20029;-61
2022/10/31 22:30:55;;;;;;;9.73;4.25;;;;;;;;;;8270966;28;20048;-63
2022/10/31 22:34:55;;;;;;;12.80;4.10;;;;;;;;;;8276570;28;20057;-63
2022/10/31 22:38:56;;;;;;;10.35;3.88;;;;;;;;;;8274832;28;21749;-63
2022/10/31 22:42:56;;;;;;;11.63;4.10;;;;;;;;;;8272517;28;20038;-62
2022/10/31 22:46:56;;;;;;;7.57;3.55;;;;;;;;;;8271604;28;20928;-63
2022/10/31 22:51:17;;;;;;;5.43;3.35;;;;;;;;;;8273340;28;20029;-63
2022/10/31 22:55:17;;;;;;;7.88;3.42;;;;;;;;;;8263996;28;20021;-63
2022/10/31 22:59:17;;;;;;;9.95;3.72;;;;;;;;;;8274560;28;20033;-63
2022/10/31 23:03:18;;;;;;;12.05;3.72;;;;;;;;;;8274775;28;20247;-63
2022/10/31 23:07:18;;;;;;;9.80;3.90;;;;;;;;;;8271809;28;20033;-63
2022/10/31 23:11:23;;;;;;;7.53;3.88;;;;;;;;;;8270364;28;20116;-63
2022/10/31 23:15:23;;;;;;;8.07;3.80;;;;;;;;;;8271190;28;20149;-63
2022/10/31 23:19:26;;;;;;;12.10;4.18;;;;;;;;;;8272026;28;20013;-63
2022/10/31 23:23:26;;;;;;;11.57;3.20;;;;;;;;;;8272164;28;20096;-64
2022/10/31 23:27:26;;;;;;;9.05;3.15;;;;;;;;;;8271074;28;20026;-63
2022/10/31 23:31:27;;;;;;;6.88;3.38;;;;;;;;;;8271837;28;20029;-63
2022/10/31 23:35:27;;;;;;;9.98;3.78;;;;;;;;;;8270676;28;20020;-63
2022/10/31 23:39:27;;;;;;;11.33;3.40;;;;;;;;;;8271194;28;20050;-63
2022/10/31 23:43:27;;;;;;;12.45;4.00;;;;;;;;;;8270684;28;20036;-63
2022/10/31 23:47:27;;;;;;;6.90;2.95;;;;;;;;;;8272232;28;20030;-63
2022/10/31 23:51:28;;;;;;;10.02;3.20;;;;;;;;;;8269057;28;20056;-62
2022/10/31 23:55:28;;;;;;;11.67;3.13;;;;;;;;;;8270562;28;20087;-62
2022/10/31 23:59:28;;;;;;;12.20;3.78;;;;;;;;;;8272613;28;20033;-63
